createdAt,value
2018-06-14T00:01:58.177Z,4.30
2018-06-14T00:04:26.746Z,4.27
2018-06-14T00:06:55.283Z,4.27
2018-06-14T00:09:24.095Z,4.20
2018-06-14T00:11:52.689Z,4.20
2018-06-14T00:14:21.260Z,4.03
2018-06-14T00:16:49.897Z,4.83
2018-06-14T00:19:18.848Z,3.90
2018-06-14T00:21:48.911Z,4.77
2018-06-14T00:24:18.156Z,4.00
2018-06-14T00:26:46.639Z,4.07
2018-06-14T00:29:15.329Z,4.43
2018-06-14T00:31:43.841Z,5.13
2018-06-14T00:34:12.374Z,4.90
2018-06-14T00:36:40.866Z,3.87
2018-06-14T00:39:09.665Z,4.57
2018-06-14T00:41:38.202Z,4.27
2018-06-14T00:44:06.786Z,4.73
2018-06-14T00:46:35.762Z,4.33
2018-06-14T00:49:04.405Z,4.33
2018-06-14T00:51:32.986Z,4.53
2018-06-14T00:54:01.559Z,4.07
2018-06-14T00:56:36.777Z,4.83
2018-06-14T00:59:05.367Z,4.00
2018-06-14T01:01:34.036Z,4.00
2018-06-14T01:04:02.631Z,4.40
2018-06-14T01:06:31.186Z,4.17
2018-06-14T01:08:59.740Z,4.97
2018-06-14T01:11:28.350Z,4.83
2018-06-14T01:13:56.948Z,4.33
2018-06-14T01:16:25.574Z,4.33
2018-06-14T01:18:54.520Z,4.63
2018-06-14T01:21:23.156Z,4.60
2018-06-14T01:23:51.747Z,4.20
2018-06-14T01:26:20.377Z,5.17
2018-06-14T01:28:48.952Z,4.80
2018-06-14T01:31:17.595Z,4.70
2018-06-14T01:33:46.086Z,4.57
2018-06-14T01:36:14.661Z,4.37
2018-06-14T01:38:43.276Z,4.90
2018-06-14T01:41:11.893Z,4.73
2018-06-14T01:43:40.518Z,4.83
2018-06-14T01:46:09.115Z,4.70
2018-06-14T01:48:37.743Z,5.03
2018-06-14T01:51:06.328Z,5.13
2018-06-14T01:53:35.094Z,5.30
2018-06-14T01:56:03.725Z,4.60
2018-06-14T01:58:32.352Z,4.83
2018-06-14T02:01:01.580Z,4.60
2018-06-14T02:03:30.420Z,5.20
2018-06-14T02:05:58.937Z,5.47
2018-06-14T02:08:27.702Z,5.33
2018-06-14T02:10:56.356Z,4.53
2018-06-14T02:13:25.034Z,5.33
2018-06-14T02:15:53.760Z,4.67
2018-06-14T02:18:22.347Z,4.93
2018-06-14T02:20:51.194Z,4.83
2018-06-14T02:23:19.795Z,5.33
2018-06-14T02:25:48.361Z,5.63
2018-06-14T02:28:17.014Z,4.90
2018-06-14T02:30:45.519Z,4.87
2018-06-14T02:33:14.250Z,4.97
2018-06-14T02:35:42.923Z,5.20
2018-06-14T02:38:11.624Z,5.40
2018-06-14T02:40:40.142Z,5.90
2018-06-14T02:43:08.645Z,5.23
2018-06-14T02:45:37.146Z,5.03
2018-06-14T02:48:05.888Z,5.20
2018-06-14T02:50:34.458Z,5.43
2018-06-14T02:53:03.043Z,5.13
2018-06-14T02:55:31.641Z,5.70
2018-06-14T02:58:00.194Z,5.23
2018-06-14T03:00:28.712Z,5.47
2018-06-14T03:02:57.234Z,5.70
2018-06-14T03:05:25.803Z,5.93
2018-06-14T03:07:54.410Z,5.83
2018-06-14T03:10:22.929Z,6.07
2018-06-14T03:12:51.453Z,6.30
2018-06-14T03:15:19.989Z,5.97
2018-06-14T03:17:48.514Z,6.30
2018-06-14T03:20:21.559Z,5.40
2018-06-14T03:22:50.198Z,5.50
2018-06-14T03:25:18.763Z,5.33
2018-06-14T03:27:47.591Z,5.53
2018-06-14T03:30:16.154Z,7.07
2018-06-14T03:32:44.706Z,6.63
2018-06-14T03:35:13.278Z,6.60
2018-06-14T03:37:41.791Z,5.87
2018-06-14T03:40:10.367Z,6.20
2018-06-14T03:42:43.018Z,5.73
2018-06-14T03:45:16.707Z,6.40
2018-06-14T03:47:46.351Z,5.97
2018-06-14T03:50:15.206Z,6.23
2018-06-14T03:52:43.709Z,6.67
2018-06-14T03:55:12.281Z,6.47
2018-06-14T03:57:40.807Z,6.90
2018-06-14T04:00:09.416Z,6.50
2018-06-14T04:02:37.962Z,6.63
2018-06-14T04:05:06.644Z,7.30
2018-06-14T04:07:35.365Z,7.10
2018-06-14T04:10:04.208Z,7.47
2018-06-14T04:12:32.823Z,7.70
2018-06-14T04:15:01.373Z,7.90
2018-06-14T04:17:29.873Z,7.77
2018-06-14T04:19:58.407Z,8.00
2018-06-14T04:22:27.087Z,8.23
2018-06-14T04:24:55.629Z,7.70
2018-06-14T04:27:24.400Z,7.83
2018-06-14T04:29:52.961Z,8.40
2018-06-14T04:32:21.503Z,7.80
2018-06-14T04:34:50.068Z,7.53
2018-06-14T04:37:18.622Z,7.90
2018-06-14T04:39:47.245Z,7.43
2018-06-14T04:42:15.797Z,7.67
2018-06-14T04:44:44.948Z,7.87
2018-06-14T04:47:13.487Z,7.47
2018-06-14T04:49:42.152Z,7.43
2018-06-14T04:52:10.884Z,7.43
2018-06-14T04:54:39.380Z,6.90
2018-06-14T04:57:07.951Z,7.10
2018-06-14T04:59:36.578Z,6.60
2018-06-14T05:02:05.396Z,6.97
2018-06-14T05:04:34.103Z,5.97
2018-06-14T05:07:02.626Z,6.03
2018-06-14T05:09:31.210Z,5.97
2018-06-14T05:11:59.759Z,5.87
2018-06-14T05:14:28.340Z,5.73
2018-06-14T05:16:56.947Z,5.97
2018-06-14T05:19:25.562Z,6.07
2018-06-14T05:21:54.124Z,5.43
2018-06-14T05:24:23.169Z,5.93
2018-06-14T05:26:51.703Z,5.77
2018-06-14T05:29:20.268Z,5.57
2018-06-14T05:31:48.859Z,6.60
2018-06-14T05:34:17.378Z,6.60
2018-06-14T05:36:45.865Z,6.07
2018-06-14T05:39:14.492Z,6.23
2018-06-14T05:41:43.087Z,7.00
2018-06-14T05:44:11.558Z,5.33
2018-06-14T05:46:40.091Z,5.63
2018-06-14T05:49:08.670Z,4.80
2018-06-14T05:51:37.126Z,5.20
2018-06-14T05:54:05.802Z,5.03
2018-06-14T05:56:34.260Z,4.87
2018-06-14T05:59:03.166Z,4.80
2018-06-14T06:01:31.825Z,4.63
2018-06-14T06:04:00.358Z,4.47
2018-06-14T06:06:28.905Z,5.00
2018-06-14T06:08:57.391Z,3.90
2018-06-14T06:11:25.864Z,4.40
2018-06-14T06:13:54.434Z,4.47
2018-06-14T06:16:23.050Z,4.70
2018-06-14T06:18:51.590Z,4.13
2018-06-14T06:21:20.139Z,3.83
2018-06-14T06:23:48.714Z,4.17
2018-06-14T06:26:17.326Z,3.40
2018-06-14T06:28:45.936Z,3.70
2018-06-14T06:31:14.510Z,3.60
2018-06-14T06:33:43.075Z,3.43
2018-06-14T06:36:11.684Z,3.30
2018-06-14T06:38:40.280Z,3.17
2018-06-14T06:41:08.841Z,3.13
2018-06-14T06:43:37.374Z,3.27
2018-06-14T06:46:05.936Z,3.70
2018-06-14T06:48:34.568Z,3.47
2018-06-14T06:51:03.045Z,3.20
2018-06-14T06:53:31.576Z,2.93
2018-06-14T06:56:00.191Z,3.17
2018-06-14T06:58:28.882Z,3.07
2018-06-14T07:00:57.460Z,3.10
2018-06-14T07:03:25.991Z,3.27
2018-06-14T07:05:54.594Z,2.67
2018-06-14T07:08:23.065Z,2.60
2018-06-14T07:10:51.643Z,3.27
2018-06-14T07:13:20.125Z,2.80
2018-06-14T07:15:48.767Z,3.13
2018-06-14T07:18:17.589Z,3.00
2018-06-14T07:20:46.080Z,3.00
2018-06-14T07:23:14.704Z,2.80
2018-06-14T07:25:43.629Z,2.90
2018-06-14T07:28:12.246Z,2.70
2018-06-14T07:30:40.843Z,3.27
2018-06-14T07:33:09.524Z,2.60
2018-06-14T07:35:38.159Z,2.70
2018-06-14T07:38:06.746Z,2.93
2018-06-14T07:40:35.330Z,2.77
2018-06-14T07:43:03.833Z,2.60
2018-06-14T07:45:32.347Z,2.50
2018-06-14T07:48:00.921Z,2.40
2018-06-14T07:50:29.506Z,2.70
2018-06-14T07:52:58.190Z,2.57
2018-06-14T07:55:26.753Z,2.97
2018-06-14T07:57:55.357Z,2.90
2018-06-14T08:00:23.947Z,2.70
2018-06-14T08:02:52.432Z,2.90
2018-06-14T08:05:21.039Z,2.90
2018-06-14T08:07:49.691Z,3.50
2018-06-14T08:10:18.437Z,2.73
2018-06-14T08:12:47.044Z,3.30
2018-06-14T08:15:15.607Z,3.40
2018-06-14T08:17:44.148Z,4.20
2018-06-14T08:20:12.818Z,3.57
2018-06-14T08:22:41.625Z,3.37
2018-06-14T08:25:10.196Z,3.33
2018-06-14T08:27:38.803Z,3.90
2018-06-14T08:30:07.422Z,3.83
2018-06-14T08:32:36.123Z,3.93
2018-06-14T08:35:04.827Z,3.13
2018-06-14T08:37:33.355Z,3.50
2018-06-14T08:40:02.027Z,3.40
2018-06-14T08:42:30.686Z,4.00
2018-06-14T08:44:59.270Z,3.93
2018-06-14T08:47:27.782Z,3.87
2018-06-14T08:49:56.447Z,3.77
2018-06-14T08:52:25.087Z,3.63
2018-06-14T08:54:53.616Z,3.27
2018-06-14T08:57:22.210Z,3.90
2018-06-14T08:59:50.808Z,4.30
2018-06-14T09:02:19.390Z,4.50
2018-06-14T09:04:48.208Z,3.87
2018-06-14T09:07:16.782Z,4.30
2018-06-14T09:09:45.779Z,4.30
2018-06-14T09:12:14.577Z,3.70
2018-06-14T09:14:43.188Z,4.40
2018-06-14T09:17:11.689Z,3.80
2018-06-14T09:19:40.262Z,3.90
2018-06-14T09:22:08.848Z,3.87
2018-06-14T09:24:37.478Z,3.80
2018-06-14T09:27:06.041Z,4.33
2018-06-14T09:29:34.647Z,4.40
2018-06-14T09:32:03.384Z,3.80
2018-06-14T09:34:31.989Z,4.37
2018-06-14T09:37:00.608Z,4.33
2018-06-14T09:39:29.208Z,4.40
2018-06-14T09:41:57.726Z,5.60
2018-06-14T09:44:26.292Z,4.80
2018-06-14T09:46:54.974Z,4.93
2018-06-14T09:49:23.527Z,4.80
2018-06-14T09:51:52.150Z,4.93
2018-06-14T09:54:20.685Z,4.37
2018-06-14T09:56:49.311Z,5.00
2018-06-14T09:59:17.860Z,4.83
2018-06-14T10:01:46.544Z,5.50
2018-06-14T10:04:15.322Z,4.67
2018-06-14T10:06:43.852Z,4.90
2018-06-14T10:09:13.190Z,4.77
2018-06-14T10:11:41.798Z,4.53
2018-06-14T10:14:10.366Z,4.63
2018-06-14T10:16:38.999Z,4.37
2018-06-14T10:19:07.529Z,4.67
2018-06-14T10:21:36.187Z,4.30
2018-06-14T10:24:04.741Z,4.77
2018-06-14T10:26:33.630Z,4.30
2018-06-14T10:29:02.247Z,4.53
2018-06-14T10:31:30.886Z,4.40
2018-06-14T10:33:59.450Z,4.73
2018-06-14T10:36:28.135Z,4.53
2018-06-14T10:38:56.798Z,4.87
2018-06-14T10:41:25.339Z,3.93
2018-06-14T10:43:54.019Z,3.90
2018-06-14T10:46:22.633Z,3.43
2018-06-14T10:48:51.105Z,3.60
2018-06-14T10:51:19.617Z,3.70
2018-06-14T10:53:48.134Z,3.50
2018-06-14T10:56:16.669Z,3.93
2018-06-14T10:58:45.216Z,3.40
2018-06-14T11:01:13.835Z,3.60
2018-06-14T11:03:42.369Z,3.17
2018-06-14T11:06:10.916Z,3.27
2018-06-14T11:08:39.429Z,2.87
2018-06-14T11:11:08.001Z,3.30
2018-06-14T11:13:36.544Z,3.03
2018-06-14T11:16:05.198Z,2.77
2018-06-14T11:18:33.767Z,3.60
2018-06-14T11:21:02.309Z,2.87
2018-06-14T11:23:30.884Z,2.83
2018-06-14T11:25:59.467Z,3.60
2018-06-14T11:28:28.050Z,3.53
2018-06-14T11:30:56.722Z,3.23
2018-06-14T11:33:25.289Z,3.20
2018-06-14T11:35:53.829Z,3.70
2018-06-14T11:38:22.721Z,3.83
2018-06-14T11:40:51.303Z,3.70
2018-06-14T11:43:19.842Z,3.13
2018-06-14T11:45:48.515Z,3.10
2018-06-14T11:48:17.122Z,3.10
2018-06-14T11:50:45.551Z,3.17
2018-06-14T11:53:14.019Z,2.57
2018-06-14T11:55:42.540Z,2.77
2018-06-14T11:58:11.079Z,3.70
2018-06-14T12:00:39.618Z,3.47
2018-06-14T12:03:08.274Z,3.13
2018-06-14T12:05:36.730Z,3.47
2018-06-14T12:08:05.281Z,2.77
2018-06-14T12:10:33.839Z,2.87
2018-06-14T12:13:02.442Z,3.13
2018-06-14T12:15:31.043Z,2.80
2018-06-14T12:17:59.575Z,2.73
2018-06-14T12:20:28.119Z,2.73
2018-06-14T12:22:56.610Z,3.00
2018-06-14T12:25:25.136Z,3.20
2018-06-14T12:27:53.708Z,2.90
2018-06-14T12:30:22.508Z,2.50
2018-06-14T12:32:51.052Z,2.73
2018-06-14T12:35:19.627Z,2.50
2018-06-14T12:37:48.288Z,2.50
2018-06-14T12:40:16.757Z,2.50
2018-06-14T12:42:45.330Z,2.40
2018-06-14T12:45:13.815Z,2.50
2018-06-14T12:47:42.296Z,2.60
2018-06-14T12:50:10.814Z,2.17
2018-06-14T12:52:39.301Z,2.70
2018-06-14T12:55:07.929Z,2.37
2018-06-14T12:57:36.449Z,2.33
2018-06-14T13:00:05.109Z,2.20
2018-06-14T13:02:33.697Z,2.10
2018-06-14T13:05:02.282Z,2.13
2018-06-14T13:07:30.818Z,1.73
2018-06-14T13:09:59.262Z,2.27
2018-06-14T13:12:28.075Z,2.00
2018-06-14T13:14:56.645Z,2.00
2018-06-14T13:17:25.160Z,2.00
2018-06-14T13:19:53.667Z,2.03
2018-06-14T13:22:22.193Z,2.47
2018-06-14T13:24:50.944Z,2.23
2018-06-14T13:27:19.711Z,2.10
2018-06-14T13:29:48.312Z,1.80
2018-06-14T13:32:16.881Z,1.93
2018-06-14T13:34:45.405Z,2.10
2018-06-14T13:37:13.967Z,1.77
2018-06-14T13:39:42.593Z,1.80
2018-06-14T13:42:11.255Z,1.87
2018-06-14T13:44:39.856Z,2.00
2018-06-14T13:47:08.338Z,1.50
2018-06-14T13:49:36.985Z,1.70
2018-06-14T13:52:05.643Z,2.23
2018-06-14T13:54:34.159Z,2.10
2018-06-14T13:57:02.760Z,1.97
2018-06-14T13:59:31.336Z,1.93
2018-06-14T14:01:59.848Z,2.27
2018-06-14T14:04:28.386Z,1.83
2018-06-14T14:07:01.014Z,1.90
2018-06-14T14:09:29.577Z,1.83
2018-06-14T14:11:58.078Z,1.70
2018-06-14T14:14:26.538Z,1.63
2018-06-14T14:16:55.119Z,1.97
2018-06-14T14:19:23.926Z,2.17
2018-06-14T14:21:52.598Z,1.83
2018-06-14T14:24:21.813Z,2.13
2018-06-14T14:26:50.436Z,2.17
2018-06-14T14:29:19.108Z,2.27
2018-06-14T14:31:47.997Z,1.97
2018-06-14T14:34:16.644Z,1.50
2018-06-14T14:36:45.182Z,2.30
2018-06-14T14:39:14.038Z,2.30
2018-06-14T14:41:43.287Z,2.10
2018-06-14T14:44:11.965Z,2.17
2018-06-14T14:46:40.719Z,2.00
2018-06-14T14:49:09.274Z,1.90
2018-06-14T14:51:37.855Z,2.27
2018-06-14T14:54:06.819Z,2.00
2018-06-14T14:56:37.781Z,2.30
2018-06-14T14:59:06.374Z,1.93
2018-06-14T15:01:35.261Z,2.10
2018-06-14T15:04:04.120Z,2.13
2018-06-14T15:06:33.202Z,2.17
2018-06-14T15:09:02.063Z,2.20
2018-06-14T15:11:30.577Z,2.27
2018-06-14T15:13:59.608Z,2.10
2018-06-14T15:16:28.791Z,2.13
2018-06-14T15:18:57.305Z,2.17
2018-06-14T15:21:25.831Z,2.27
2018-06-14T15:23:54.496Z,2.20
2018-06-14T15:26:23.723Z,2.47
2018-06-14T15:28:53.408Z,2.27
2018-06-14T15:31:22.117Z,1.90
2018-06-14T15:33:51.071Z,2.63
2018-06-14T15:36:20.192Z,2.23
2018-06-14T15:38:49.229Z,2.40
2018-06-14T15:41:17.740Z,2.40
2018-06-14T15:43:46.323Z,2.53
2018-06-14T15:46:15.095Z,2.30
2018-06-14T15:48:43.679Z,2.40
2018-06-14T15:51:12.685Z,2.40
2018-06-14T15:53:41.190Z,2.10
2018-06-14T15:56:26.184Z,1.90
2018-06-14T15:58:54.868Z,2.00
2018-06-14T16:01:23.830Z,2.03
2018-06-14T16:03:52.477Z,2.73
2018-06-14T16:06:21.130Z,2.10
2018-06-14T16:08:50.000Z,2.03
2018-06-14T16:11:18.857Z,2.00
2018-06-14T16:13:47.661Z,1.87
2018-06-14T16:16:16.404Z,1.90
2018-06-14T16:18:45.233Z,2.07
2018-06-14T16:21:13.865Z,1.60
2018-06-14T16:23:42.609Z,2.30
2018-06-14T16:26:11.605Z,2.10
2018-06-14T16:28:40.253Z,2.33
2018-06-14T16:31:08.976Z,2.37
2018-06-14T16:33:37.961Z,1.93
2018-06-14T16:36:06.628Z,2.30
2018-06-14T16:38:35.742Z,2.03
2018-06-14T16:41:05.046Z,2.10
2018-06-14T16:43:34.486Z,2.00
2018-06-14T16:46:03.439Z,2.10
2018-06-14T16:48:32.084Z,2.07
2018-06-14T16:51:00.993Z,2.07
2018-06-14T16:53:29.784Z,2.17
2018-06-14T16:55:58.361Z,2.37
2018-06-14T16:58:27.258Z,2.03
2018-06-14T17:00:55.993Z,2.23
2018-06-14T17:03:25.573Z,2.13
2018-06-14T17:05:54.240Z,2.30
2018-06-14T17:08:22.839Z,2.30
2018-06-14T17:10:51.504Z,1.93
2018-06-14T17:13:20.236Z,2.40
2018-06-14T17:15:49.257Z,2.40
2018-06-14T17:18:17.738Z,2.30
2018-06-14T17:20:46.317Z,2.20
2018-06-14T17:23:14.995Z,2.10
2018-06-14T17:25:43.622Z,2.27
2018-06-14T17:28:12.197Z,2.53
2018-06-14T17:30:41.086Z,2.37
2018-06-14T17:33:09.637Z,2.60
2018-06-14T17:35:38.390Z,2.50
2018-06-14T17:38:07.097Z,2.43
2018-06-14T17:40:35.630Z,2.50
2018-06-14T17:43:04.635Z,2.23
2018-06-14T17:45:33.229Z,2.80
2018-06-14T17:48:01.867Z,2.50
2018-06-14T17:50:30.400Z,2.67
2018-06-14T17:52:58.957Z,2.33
2018-06-14T17:55:27.557Z,2.43
2018-06-14T17:57:56.646Z,2.40
2018-06-14T18:00:25.311Z,2.60
2018-06-14T18:02:54.104Z,2.50
2018-06-14T18:05:22.816Z,2.33
2018-06-14T18:07:51.684Z,2.30
2018-06-14T18:10:20.466Z,2.40
2018-06-14T18:12:49.114Z,2.40
2018-06-14T18:15:17.663Z,3.03
2018-06-14T18:17:46.276Z,2.37
2018-06-14T18:20:15.133Z,2.43
2018-06-14T18:22:43.862Z,2.83
2018-06-14T18:25:12.396Z,2.60
2018-06-14T18:27:41.062Z,2.50
2018-06-14T18:30:10.209Z,2.57
2018-06-14T18:32:38.805Z,2.30
2018-06-14T18:35:07.291Z,3.23
2018-06-14T18:37:35.950Z,2.70
2018-06-14T18:40:04.625Z,2.93
2018-06-14T18:42:33.338Z,2.67
2018-06-14T18:45:01.869Z,2.60
2018-06-14T18:47:30.412Z,2.73
2018-06-14T18:49:59.096Z,2.70
2018-06-14T18:52:27.610Z,2.50
2018-06-14T18:54:56.377Z,2.63
2018-06-14T18:57:25.212Z,2.63
2018-06-14T18:59:54.153Z,3.20
2018-06-14T19:02:22.672Z,2.50
2018-06-14T19:04:51.413Z,2.80
2018-06-14T19:07:20.053Z,2.73
2018-06-14T19:09:49.005Z,3.10
2018-06-14T19:12:18.196Z,2.70
2018-06-14T19:14:46.931Z,2.83
2018-06-14T19:17:15.544Z,2.70
2018-06-14T19:19:44.234Z,3.50
2018-06-14T19:22:12.928Z,5.70
2018-06-14T19:24:41.475Z,6.83
2018-06-14T19:27:10.020Z,7.53
2018-06-14T19:29:38.948Z,6.77
2018-06-14T19:32:07.970Z,7.80
2018-06-14T19:34:37.268Z,8.43
2018-06-14T19:37:06.659Z,8.13
2018-06-14T19:39:35.576Z,8.30
2018-06-14T19:42:04.531Z,8.00
2018-06-14T19:44:33.014Z,7.73
2018-06-14T19:47:02.414Z,8.73
2018-06-14T19:49:31.314Z,8.53
2018-06-14T19:52:00.123Z,8.17
2018-06-14T19:54:28.647Z,9.27
2018-06-14T19:56:57.223Z,9.80
2018-06-14T19:59:26.514Z,11.27
2018-06-14T20:01:55.484Z,11.20
2018-06-14T20:04:24.679Z,11.37
2018-06-14T20:06:53.372Z,11.87
2018-06-14T20:09:22.333Z,12.83
2018-06-14T20:11:51.351Z,12.07
2018-06-14T20:14:19.906Z,12.93
2018-06-14T20:16:48.740Z,13.40
2018-06-14T20:19:20.146Z,14.13
2018-06-14T20:21:49.199Z,13.90
2018-06-14T20:24:18.105Z,13.70
2018-06-14T20:26:46.819Z,14.20
2018-06-14T20:29:15.598Z,13.70
2018-06-14T20:31:44.711Z,14.90
2018-06-14T20:34:13.780Z,14.13
2018-06-14T20:36:42.585Z,14.27
2018-06-14T20:39:12.896Z,15.27
2018-06-14T20:41:41.653Z,16.20
2018-06-14T20:44:11.146Z,15.03
2018-06-14T20:46:39.703Z,16.23
2018-06-14T20:49:08.433Z,16.77
2018-06-14T20:51:36.975Z,15.23
2018-06-14T20:54:05.635Z,16.23
2018-06-14T20:56:34.889Z,16.83
2018-06-14T20:59:04.287Z,16.90
2018-06-14T21:01:33.167Z,17.70
2018-06-14T21:04:02.485Z,16.27
2018-06-14T21:06:32.718Z,15.83
2018-06-14T21:09:08.925Z,17.17
2018-06-14T21:11:44.179Z,18.33
2018-06-14T21:14:12.676Z,18.37
2018-06-14T21:16:42.996Z,17.40
2018-06-14T21:19:15.751Z,19.13
2018-06-14T21:21:44.596Z,18.47
2018-06-14T21:24:13.141Z,18.30
2018-06-14T21:26:41.606Z,19.17
2018-06-14T21:29:10.219Z,17.20
2018-06-14T21:31:38.699Z,18.73
2018-06-14T21:34:08.055Z,19.30
2018-06-14T21:36:36.909Z,18.03
2018-06-14T21:39:09.048Z,17.20
2018-06-14T21:41:38.047Z,17.53
2018-06-14T21:44:07.610Z,17.47
2018-06-14T21:46:36.398Z,17.10
2018-06-14T21:49:06.236Z,16.97
2018-06-14T21:51:34.708Z,17.50
2018-06-14T21:54:03.285Z,17.73
2018-06-14T21:56:31.800Z,17.97
2018-06-14T21:59:00.338Z,17.90
2018-06-14T22:01:28.849Z,17.50
2018-06-14T22:03:59.591Z,17.53
2018-06-14T22:06:29.518Z,17.17
2018-06-14T22:08:58.244Z,17.60
2018-06-14T22:11:26.989Z,19.27
2018-06-14T22:13:55.629Z,19.87
2018-06-14T22:16:24.917Z,19.13
2018-06-14T22:18:53.724Z,19.00
2018-06-14T22:21:22.577Z,19.20
2018-06-14T22:23:51.584Z,19.97
2018-06-14T22:26:20.236Z,18.33
2018-06-14T22:28:49.079Z,19.80
2018-06-14T22:31:17.713Z,19.20
2018-06-14T22:33:57.410Z,19.77
2018-06-14T22:36:26.196Z,18.20
2018-06-14T22:38:55.001Z,20.97
2018-06-14T22:41:23.791Z,19.77
2018-06-14T22:43:52.619Z,20.63
2018-06-14T22:46:21.504Z,19.97
2018-06-14T22:48:50.313Z,20.83
2018-06-14T22:51:20.563Z,21.43
2018-06-14T22:53:49.171Z,20.93
2018-06-14T22:56:17.831Z,21.00
2018-06-14T22:58:47.166Z,20.60
2018-06-14T23:01:35.172Z,20.33
2018-06-14T23:04:04.389Z,20.93
2018-06-14T23:06:33.203Z,18.67
2018-06-14T23:09:21.458Z,18.13
2018-06-14T23:11:50.132Z,18.20
2018-06-14T23:14:18.932Z,19.27
2018-06-14T23:16:47.440Z,17.30
2018-06-14T23:19:16.080Z,16.83
2018-06-14T23:21:44.855Z,17.33
2018-06-14T23:24:13.452Z,16.63
2018-06-14T23:26:42.341Z,17.37
2018-06-14T23:29:11.023Z,16.97
2018-06-14T23:31:39.838Z,15.80
2018-06-14T23:34:08.599Z,17.80
2018-06-14T23:36:37.464Z,17.87
2018-06-14T23:39:07.010Z,18.60
2018-06-14T23:41:35.758Z,19.07
2018-06-14T23:44:04.316Z,17.73
2018-06-14T23:46:32.877Z,17.53
2018-06-14T23:49:01.454Z,17.87
2018-06-14T23:51:29.938Z,16.30
2018-06-14T23:53:58.464Z,16.90
2018-06-14T23:56:27.081Z,16.37
2018-06-14T23:58:55.577Z,16.70
